Terminal Aerodrome Forecast
Issued by NWS Glasgow, MT

Home | Current Version | Previous Version | Text Only | Print | Product List | Glossary On
Versions: 1 2 3 4 5 6 7 8 9 10 11 12 13 14
000
FTUS45 KGGW 211142
TAFGGW
TAF
KGGW 211142Z 2112/2212 29018G30KT P6SM VCSH BKN020
     FM211400 28016KT P6SM BKN030
     FM211600 30018G28KT P6SM BKN035
     FM212100 29019G30KT P6SM FEW140
     FM220300 26006KT P6SM SKC=

USA.gov is the U.S. government's official web portal to all federal, state and local government web resources and services.